SBCJ/CKS METAR and TAF weather

Enter ICAO airport designator
Station Type Date Time Source
SBCJ METAR 2020/04/01 20:00 UTC NOAA

SBCJ 012000Z 14002KT 9999 FEW030 28/22 Q1012


Station Type Date Time Source
SBCJ Decoded METAR 2020/04/01 20:00 UTC NOAA

Carajas / Maraba, Brazil (SBCJ) 06-07S 050-00W
Apr 01, 2020 - 04:00 PM EDT / 2020.04.01 2000 UTC
Wind: from the SE (140 degrees) at 2 MPH (2 KT):0
Visibility: greater than 7 mile(s):0
Sky conditions: mostly clear
Temperature: 82 F (28 C)
Dew Point: 71 F (22 C)
Relative Humidity: 69%
Pressure (altimeter): 29.88 in. Hg (1012 hPa)
ob: SBCJ 012000Z 14002KT 9999 FEW030 28/22 Q1012
cycle: 20

Station Type Date Time Source
SBCJ TAF 2020/04/02 06:09 UTC NOAA

TAF TAF SBCJ 020300Z 0206/0218 06005KT 9999 SCT020 TN25/0211Z TX29/0218Z
BECMG 0216/0218 12005KT
RMK PHI

Example: see airport list